Time;durP1;ratioP1;P1;durP2;ratioP2;P2;SDS_P1;SDS_P2;PMS_P1;PMS_P2;Temp;Humidity;BMP_temperature;BMP_pressure;BME280_temperature;BME280_humidity;BME280_pressure;Samples;Min_cycle;Max_cycle;Signal;HPM_P1;HPM_P2
2022/06/03 00:02:43;;;;;;;;;;;23.40;99.90;;;;;;5030866;28;20444;-71
2022/06/03 00:05:20;;;;;;;;;;;23.50;99.90;;;;;;5072520;28;20433;-73
2022/06/03 00:08:08;;;;;;;;;;;23.50;99.90;;;;;;5083531;28;20278;-73
2022/06/03 00:10:33;;;;;;;;;;;23.40;99.90;;;;;;5071419;28;19912;-71
2022/06/03 00:13:17;;;;;;;;;;;23.40;99.90;;;;;;5092053;28;20007;-74
2022/06/03 00:15:58;;;;;;;;;;;23.30;99.90;;;;;;5070161;28;19973;-73
2022/06/03 00:18:48;;;;;;;;;;;23.30;99.90;;;;;;5069225;28;19912;-72
2022/06/03 00:21:29;;;;;;;;;;;23.30;99.90;;;;;;5082793;28;19979;-73
2022/06/03 00:24:02;;;;;;;;;;;23.30;99.90;;;;;;5088255;28;19909;-72
2022/06/03 00:26:28;;;;;;;;;;;23.30;99.90;;;;;;5063101;28;19918;-72
2022/06/03 00:28:53;;;;;;;;;;;23.20;99.90;;;;;;5072599;28;19916;-72
2022/06/03 00:31:42;;;;;;;;;;;23.30;99.90;;;;;;5091726;28;19916;-72
2022/06/03 00:34:11;;;;;;;;;;;23.20;99.90;;;;;;5065562;28;20018;-72
2022/06/03 00:36:46;;;;;;;;;;;23.20;99.90;;;;;;5086303;28;19912;-72
2022/06/03 00:39:30;;;;;;;;;;;23.20;99.90;;;;;;5079708;28;19921;-72
2022/06/03 00:42:15;;;;;;;;;;;23.20;99.90;;;;;;5080092;28;19944;-72
2022/06/03 00:44:46;;;;;;;;;;;23.20;99.90;;;;;;5085816;28;20403;-72
2022/06/03 00:47:27;;;;;;;;;;;23.20;99.90;;;;;;5087909;28;19920;-71
2022/06/03 00:50:22;;;;;;;;;;;23.10;99.90;;;;;;5064529;28;19927;-72
2022/06/03 00:52:48;;;;;;;;;;;23.10;99.90;;;;;;5072285;28;20366;-73
2022/06/03 00:55:32;;;;;;;;;;;23.20;99.90;;;;;;5073440;28;19933;-71
2022/06/03 00:58:01;;;;;;;;;;;23.20;99.90;;;;;;5063686;28;19912;-71
2022/06/03 01:00:31;;;;;;;;;;;23.20;99.90;;;;;;5064158;28;19921;-72
2022/06/03 01:03:17;;;;;;;;;;;23.10;99.90;;;;;;5061760;28;19913;-72
2022/06/03 01:05:58;;;;;;;;;;;23.10;99.90;;;;;;5054063;28;19962;-72
2022/06/03 01:08:30;;;;;;;;;;;23.10;99.90;;;;;;5077933;28;20002;-72
2022/06/03 01:11:14;;;;;;;;;;;23.00;99.90;;;;;;5087626;28;20444;-72
2022/06/03 01:13:40;;;;;;;;;;;23.10;99.90;;;;;;5080614;28;19916;-72
2022/06/03 01:16:12;;;;;;;;;;;23.10;99.90;;;;;;5090620;28;20547;-72
2022/06/03 01:18:43;;;;;;;;;;;23.10;99.90;;;;;;5083175;28;19973;-72
2022/06/03 01:21:09;;;;;;;;;;;23.00;99.90;;;;;;5069982;28;19964;-72
2022/06/03 01:23:37;;;;;;;;;;;23.00;99.90;;;;;;5083867;28;19948;-73
2022/06/03 01:26:06;;;;;;;;;;;22.90;99.90;;;;;;5083713;28;19966;-73
2022/06/03 01:28:50;;;;;;;;;;;22.90;99.90;;;;;;5062050;28;19916;-72
2022/06/03 01:31:18;;;;;;;;;;;22.90;99.90;;;;;;5065764;28;20005;-72
2022/06/03 01:33:44;;;;;;;;;;;22.80;99.90;;;;;;5083902;28;19931;-72
2022/06/03 01:36:16;;;;;;;;;;;22.80;99.90;;;;;;5054231;28;19912;-72
2022/06/03 01:38:50;;;;;;;;;;;22.70;99.90;;;;;;5064001;28;19951;-71
2022/06/03 01:41:16;;;;;;;;;;;22.70;99.90;;;;;;5086638;28;19981;-72
2022/06/03 01:43:44;;;;;;;;;;;22.60;99.90;;;;;;5065377;28;19916;-72
2022/06/03 01:46:13;;;;;;;;;;;22.60;99.90;;;;;;5071776;28;19960;-71
2022/06/03 01:48:42;;;;;;;;;;;22.60;99.90;;;;;;5064834;28;19916;-72
2022/06/03 01:51:10;;;;;;;;;;;22.60;99.90;;;;;;5084172;28;20071;-73
2022/06/03 01:53:55;;;;;;;;;;;22.50;99.90;;;;;;5074964;28;20480;-72
2022/06/03 01:56:39;;;;;;;;;;;22.50;99.90;;;;;;5069900;28;20050;-73
2022/06/03 01:59:04;;;;;;;;;;;22.50;99.90;;;;;;5080763;28;20384;-71
2022/06/03 02:01:45;;;;;;;;;;;22.50;99.90;;;;;;5073218;28;19912;-72
2022/06/03 02:04:30;;;;;;;;;;;22.40;99.90;;;;;;5078494;28;19954;-72
2022/06/03 02:07:21;;;;;;;;;;;22.40;99.90;;;;;;5076425;28;19965;-72
2022/06/03 02:09:49;;;;;;;;;;;22.40;99.90;;;;;;5065260;28;19912;-71
2022/06/03 02:12:29;;;;;;;;;;;22.30;99.90;;;;;;5079436;28;20387;-72
2022/06/03 02:15:01;;;;;;;;;;;22.30;99.90;;;;;;5086348;28;19957;-72
2022/06/03 02:17:41;;;;;;;;;;;22.30;99.90;;;;;;5071266;28;19912;-72
2022/06/03 02:20:25;;;;;;;;;;;22.30;99.90;;;;;;5061343;28;20251;-72
2022/06/03 02:22:51;;;;;;;;;;;22.30;99.90;;;;;;5060335;28;19944;-72
2022/06/03 02:25:25;;;;;;;;;;;22.20;99.90;;;;;;5083943;28;19960;-72
2022/06/03 02:28:08;;;;;;;;;;;22.20;99.90;;;;;;5080700;28;19917;-71
2022/06/03 02:30:55;;;;;;;;;;;22.20;99.90;;;;;;5071469;28;19927;-74
2022/06/03 02:33:31;;;;;;;;;;;22.20;99.90;;;;;;5083738;28;19916;-72
2022/06/03 02:36:26;;;;;;;;;;;22.20;99.90;;;;;;5067098;28;19947;-72
2022/06/03 02:39:10;;;;;;;;;;;22.20;99.90;;;;;;5036604;28;19960;-72
2022/06/03 02:41:56;;;;;;;;;;;22.20;99.90;;;;;;5079208;28;20437;-72
2022/06/03 02:44:21;;;;;;;;;;;22.10;99.90;;;;;;5087504;28;19924;-72
2022/06/03 02:46:48;;;;;;;;;;;22.10;99.90;;;;;;5080140;28;19908;-72
2022/06/03 02:49:13;;;;;;;;;;;22.10;99.90;;;;;;5084420;28;19918;-72
2022/06/03 02:51:39;;;;;;;;;;;22.10;99.90;;;;;;5079762;28;20000;-72
2022/06/03 02:54:17;;;;;;;;;;;22.10;99.90;;;;;;5068382;28;19916;-72
2022/06/03 02:56:46;;;;;;;;;;;22.10;99.90;;;;;;5082147;28;19912;-72
2022/06/03 02:59:21;;;;;;;;;;;22.10;99.90;;;;;;5077761;28;19908;-72
2022/06/03 03:01:57;;;;;;;;;;;22.10;99.90;;;;;;5064290;28;19961;-71
2022/06/03 03:04:31;;;;;;;;;;;22.10;99.90;;;;;;5076599;28;19909;-72
2022/06/03 03:07:09;;;;;;;;;;;22.10;99.90;;;;;;5082157;28;19957;-73
2022/06/03 03:09:48;;;;;;;;;;;22.10;99.90;;;;;;5086689;28;20296;-73
2022/06/03 03:12:20;;;;;;;;;;;22.10;99.90;;;;;;5062715;28;19917;-73
2022/06/03 03:15:04;;;;;;;;;;;22.00;99.90;;;;;;5085726;28;20378;-72
2022/06/03 03:17:38;;;;;;;;;;;22.00;99.90;;;;;;5079788;28;19920;-72
2022/06/03 03:20:04;;;;;;;;;;;21.90;99.90;;;;;;5067647;28;20381;-73
2022/06/03 03:22:32;;;;;;;;;;;22.00;99.90;;;;;;5084978;28;19913;-73
2022/06/03 03:25:16;;;;;;;;;;;22.00;99.90;;;;;;5084731;28;19919;-73
2022/06/03 03:27:42;;;;;;;;;;;21.90;99.90;;;;;;5085954;28;20278;-73
2022/06/03 03:30:19;;;;;;;;;;;21.90;99.90;;;;;;5064886;28;19927;-73
2022/06/03 03:32:52;;;;;;;;;;;21.90;99.90;;;;;;5086214;28;20011;-71
2022/06/03 03:35:30;;;;;;;;;;;22.00;99.90;;;;;;5090507;28;19934;-73
2022/06/03 03:38:01;;;;;;;;;;;22.00;99.90;;;;;;5090877;28;20259;-72
2022/06/03 03:40:33;;;;;;;;;;;22.00;99.90;;;;;;5087612;28;19913;-72
2022/06/03 03:43:14;;;;;;;;;;;22.00;99.90;;;;;;5081358;28;20094;-72
2022/06/03 03:45:53;;;;;;;;;;;21.90;99.90;;;;;;5081866;28;20011;-73
2022/06/03 03:48:38;;;;;;;;;;;21.90;99.90;;;;;;5067445;28;20297;-72
2022/06/03 03:51:18;;;;;;;;;;;22.00;99.90;;;;;;5082939;28;20353;-73
2022/06/03 03:53:47;;;;;;;;;;;22.10;99.90;;;;;;5080748;28;19916;-72
2022/06/03 03:56:31;;;;;;;;;;;22.10;99.90;;;;;;5089111;28;19919;-72
2022/06/03 03:59:15;;;;;;;;;;;22.20;99.90;;;;;;5089713;28;19912;-73
2022/06/03 04:01:46;;;;;;;;;;;22.20;99.90;;;;;;5073891;28;19920;-73
2022/06/03 04:04:12;;;;;;;;;;;22.10;99.90;;;;;;5071261;28;19912;-72
2022/06/03 04:06:56;;;;;;;;;;;22.20;99.90;;;;;;5066714;28;19919;-72
2022/06/03 04:09:54;;;;;;;;;;;22.30;99.90;;;;;;5084974;28;20005;-72
2022/06/03 04:12:28;;;;;;;;;;;22.30;99.90;;;;;;5065323;28;19916;-73
2022/06/03 04:15:12;;;;;;;;;;;22.40;99.90;;;;;;5088902;28;20301;-72
2022/06/03 04:17:47;;;;;;;;;;;22.40;99.90;;;;;;5087139;28;19931;-72
2022/06/03 04:20:31;;;;;;;;;;;22.30;99.90;;;;;;5083842;28;19934;-73
2022/06/03 04:23:05;;;;;;;;;;;22.40;99.90;;;;;;5083718;28;19912;-73
2022/06/03 04:25:53;;;;;;;;;;;22.40;99.90;;;;;;5071458;28;19973;-74
2022/06/03 04:28:37;;;;;;;;;;;22.40;99.90;;;;;;5066072;28;19919;-74
2022/06/03 04:31:03;;;;;;;;;;;22.50;99.90;;;;;;5091398;28;19922;-72
2022/06/03 04:33:48;;;;;;;;;;;22.40;99.90;;;;;;5086354;28;20005;-73
2022/06/03 04:36:20;;;;;;;;;;;22.50;99.90;;;;;;5082907;28;19999;-74
2022/06/03 04:39:04;;;;;;;;;;;22.40;99.90;;;;;;5090566;28;20419;-74
2022/06/03 04:41:36;;;;;;;;;;;22.50;99.90;;;;;;5086339;28;19954;-73
2022/06/03 04:44:02;;;;;;;;;;;22.50;99.90;;;;;;5086450;28;19919;-73
2022/06/03 04:46:46;;;;;;;;;;;22.50;99.90;;;;;;5083093;28;20274;-74
2022/06/03 04:49:18;;;;;;;;;;;22.60;99.90;;;;;;5089599;28;19928;-73
2022/06/03 04:52:04;;;;;;;;;;;22.70;99.90;;;;;;5086473;28;20384;-74
2022/06/03 04:54:29;;;;;;;;;;;22.70;99.90;;;;;;5072643;28;20290;-73
2022/06/03 04:57:13;;;;;;;;;;;22.80;99.90;;;;;;5093367;28;19908;-73
2022/06/03 04:59:57;;;;;;;;;;;22.80;99.90;;;;;;5062867;28;19916;-74
2022/06/03 05:02:26;;;;;;;;;;;22.90;99.90;;;;;;5067353;28;19912;-72
2022/06/03 05:04:57;;;;;;;;;;;22.90;99.90;;;;;;5090338;28;19912;-74
2022/06/03 05:07:42;;;;;;;;;;;23.00;99.90;;;;;;5087396;28;19951;-73
2022/06/03 05:10:22;;;;;;;;;;;23.10;99.90;;;;;;5088708;28;19908;-73
2022/06/03 05:12:54;;;;;;;;;;;23.20;99.90;;;;;;5085877;28;19986;-73
2022/06/03 05:15:38;;;;;;;;;;;23.20;99.90;;;;;;5084870;28;20282;-73
2022/06/03 05:18:13;;;;;;;;;;;23.40;99.90;;;;;;5086255;28;19916;-73
2022/06/03 05:20:57;;;;;;;;;;;23.50;99.90;;;;;;5088509;28;19917;-73
2022/06/03 05:23:22;;;;;;;;;;;23.60;99.90;;;;;;5067720;28;19912;-73
2022/06/03 05:25:54;;;;;;;;;;;23.60;99.90;;;;;;5087572;28;19912;-73
2022/06/03 05:28:26;;;;;;;;;;;23.50;99.90;;;;;;5056043;28;19912;-74
2022/06/03 05:31:04;;;;;;;;;;;23.50;99.90;;;;;;5060908;28;20443;-73
2022/06/03 05:33:38;;;;;;;;;;;23.50;99.90;;;;;;5063213;28;20341;-73
2022/06/03 05:36:23;;;;;;;;;;;23.50;99.90;;;;;;5081334;28;19946;-72
2022/06/03 05:38:51;;;;;;;;;;;23.60;99.90;;;;;;5085980;28;19915;-72
2022/06/03 05:44:33;;;;;;;;;;;23.70;99.90;;;;;;5089079;28;19930;-74
2022/06/03 05:47:39;;;;;;;;;;;23.80;99.90;;;;;;5067909;28;19920;-75
2022/06/03 05:50:13;;;;;;;;;;;23.80;99.90;;;;;;5029882;28;19913;-74
2022/06/03 05:53:10;;;;;;;;;;;23.90;99.90;;;;;;5079764;28;20510;-73
2022/06/03 05:55:44;;;;;;;;;;;23.90;99.90;;;;;;5089513;28;19919;-74
2022/06/03 05:58:11;;;;;;;;;;;23.90;99.90;;;;;;5074935;28;19922;-72
2022/06/03 06:00:55;;;;;;;;;;;24.00;99.90;;;;;;5082236;28;19955;-72
2022/06/03 06:03:24;;;;;;;;;;;24.20;99.90;;;;;;5068857;28;19920;-72
2022/06/03 06:05:58;;;;;;;;;;;24.20;99.90;;;;;;5067591;28;19950;-73
2022/06/03 06:08:28;;;;;;;;;;;24.30;99.90;;;;;;5068295;28;19963;-73
2022/06/03 06:11:00;;;;;;;;;;;24.30;99.90;;;;;;5066195;28;19921;-74
2022/06/03 06:13:42;;;;;;;;;;;24.30;99.90;;;;;;5072338;28;19916;-73
2022/06/03 06:16:14;;;;;;;;;;;24.30;99.90;;;;;;5085542;28;19920;-73
2022/06/03 06:18:58;;;;;;;;;;;24.30;99.90;;;;;;5084926;28;19955;-74
2022/06/03 06:21:57;;;;;;;;;;;;;;;;;;;;;
2022/06/03 06:27:55;;;;;;;;;;;24.40;99.90;;;;;;5090191;28;20681;-74
2022/06/03 06:30:46;;;;;;;;;;;24.50;99.90;;;;;;5087159;28;20326;-73
2022/06/03 06:33:41;;;;;;;;;;;;;;;;;;;;;
2022/06/03 06:36:44;;;;;;;;;;;;;;;;;;;;;
2022/06/03 06:39:51;;;;;;;;;;;;;;;;;;;;;
2022/06/03 06:42:42;;;;;;;;;;;24.90;99.90;;;;;;5088940;28;19992;-72
2022/06/03 06:45:32;;;;;;;;;;;25.00;99.90;;;;;;5070663;28;19912;-75
2022/06/03 06:48:05;;;;;;;;;;;25.20;99.90;;;;;;5086660;28;19939;-65
2022/06/03 06:50:42;;;;;;;;;;;25.30;99.90;;;;;;5065137;28;19916;-65
2022/06/03 06:53:14;;;;;;;;;;;25.30;99.90;;;;;;5066858;28;19916;-64
2022/06/03 06:55:56;;;;;;;;;;;25.50;99.90;;;;;;5081922;28;19923;-65
2022/06/03 06:58:44;;;;;;;;;;;25.70;99.90;;;;;;5047606;28;20474;-64
2022/06/03 07:01:12;;;;;;;;;;;25.50;99.90;;;;;;5069030;28;19912;-65
2022/06/03 07:03:52;;;;;;;;;;;25.60;99.90;;;;;;5080172;28;19935;-64
2022/06/03 07:06:28;;;;;;;;;;;25.70;99.90;;;;;;5076201;28;19913;-65
2022/06/03 07:09:17;;;;;;;;;;;25.90;99.90;;;;;;5086723;28;20396;-66
2022/06/03 07:12:02;;;;;;;;;;;25.80;99.90;;;;;;5084009;28;19912;-66
2022/06/03 07:14:29;;;;;;;;;;;25.80;99.90;;;;;;5070400;28;20512;-68
2022/06/03 07:20:09;;;;;;;;;;;25.80;99.90;;;;;;5083098;28;19919;-67
2022/06/03 07:22:35;;;;;;;;;;;25.90;99.90;;;;;;5083117;28;19939;-63
2022/06/03 07:25:19;;;;;;;;;;;25.90;99.90;;;;;;5080576;28;19920;-65
2022/06/03 07:28:00;;;;;;;;;;;26.00;99.90;;;;;;5082602;28;20385;-67
2022/06/03 07:30:46;;;;;;;;;;;26.00;99.90;;;;;;5069736;28;19917;-67
2022/06/03 07:33:36;;;;;;;;;;;26.00;99.90;;;;;;5068845;28;19992;-66
2022/06/03 07:36:06;;;;;;;;;;;26.30;99.90;;;;;;5062894;28;20392;-66
2022/06/03 07:38:45;;;;;;;;;;;26.40;99.90;;;;;;5093173;28;20346;-67
2022/06/03 07:41:29;;;;;;;;;;;26.40;99.90;;;;;;5075900;28;19916;-67
2022/06/03 07:44:06;;;;;;;;;;;26.70;99.90;;;;;;5080154;28;21732;-67
2022/06/03 07:46:37;;;;;;;;;;;26.80;99.90;;;;;;5088024;28;19919;-67
2022/06/03 07:49:04;;;;;;;;;;;26.90;99.90;;;;;;5089738;28;19969;-67
2022/06/03 07:51:32;;;;;;;;;;;27.00;99.90;;;;;;5086746;28;19920;-67
2022/06/03 07:53:57;;;;;;;;;;;26.90;99.90;;;;;;5082545;28;19944;-67
2022/06/03 07:56:27;;;;;;;;;;;27.10;99.90;;;;;;5088414;28;19913;-67
2022/06/03 07:58:57;;;;;;;;;;;27.10;99.90;;;;;;5070735;28;19927;-68
2022/06/03 08:01:24;;;;;;;;;;;27.30;99.90;;;;;;5084932;28;19980;-67
2022/06/03 08:03:49;;;;;;;;;;;27.30;99.90;;;;;;5083601;28;19912;-67
2022/06/03 08:06:15;;;;;;;;;;;27.50;99.90;;;;;;5078062;28;20538;-68
2022/06/03 08:11:28;;;;;;;;;;;27.50;99.90;;;;;;5084458;28;19965;-67
2022/06/03 08:13:56;;;;;;;;;;;27.20;99.90;;;;;;5091652;28;19923;-69
2022/06/03 08:16:33;;;;;;;;;;;27.50;99.90;;;;;;5062917;28;20290;-69
2022/06/03 08:19:01;;;;;;;;;;;27.50;99.90;;;;;;5065430;28;19920;-68
2022/06/03 08:21:31;;;;;;;;;;;27.70;99.90;;;;;;5086738;28;20454;-67
2022/06/03 08:23:58;;;;;;;;;;;28.10;99.90;;;;;;5086550;28;19912;-66
2022/06/03 08:26:26;;;;;;;;;;;28.40;99.90;;;;;;5089635;28;20369;-65
2022/06/03 08:29:12;;;;;;;;;;;28.60;99.90;;;;;;5086193;28;19923;-66
2022/06/03 08:31:38;;;;;;;;;;;28.90;99.90;;;;;;5070440;28;20014;-66
2022/06/03 08:34:06;;;;;;;;;;;29.10;99.90;;;;;;5089993;28;19928;-66
2022/06/03 08:36:35;;;;;;;;;;;28.70;99.90;;;;;;5063038;28;19965;-67
2022/06/03 08:39:09;;;;;;;;;;;28.50;99.90;;;;;;5093393;28;19908;-68
2022/06/03 08:41:34;;;;;;;;;;;28.60;99.90;;;;;;5087815;28;19958;-68
2022/06/03 08:44:19;;;;;;;;;;;28.80;99.90;;;;;;5055930;28;19958;-67
2022/06/03 08:46:44;;;;;;;;;;;29.00;99.90;;;;;;5072088;28;19913;-67
2022/06/03 08:49:16;;;;;;;;;;;29.00;99.90;;;;;;5083221;28;19912;-67
2022/06/03 08:51:45;;;;;;;;;;;29.30;99.90;;;;;;5089709;28;19916;-66
2022/06/03 08:54:26;;;;;;;;;;;29.60;99.90;;;;;;5064497;28;19963;-65
2022/06/03 08:56:54;;;;;;;;;;;29.70;99.90;;;;;;5063405;28;19970;-66
2022/06/03 08:59:34;;;;;;;;;;;29.90;99.90;;;;;;5062708;28;19951;-68
2022/06/03 09:02:04;;;;;;;;;;;30.10;99.90;;;;;;5090080;28;19934;-68
2022/06/03 09:04:39;;;;;;;;;;;30.10;99.90;;;;;;5088311;28;19963;-66
2022/06/03 09:07:35;;;;;;;;;;;30.20;99.90;;;;;;5067083;28;19912;-66
2022/06/03 09:10:03;;;;;;;;;;;30.00;99.90;;;;;;5075694;28;19913;-68
2022/06/03 09:12:29;;;;;;;;;;;29.60;99.90;;;;;;5080131;28;19917;-68
2022/06/03 09:14:56;;;;;;;;;;;29.10;99.90;;;;;;5078455;28;19912;-65
2022/06/03 09:17:24;;;;;;;;;;;28.90;99.90;;;;;;5085960;28;19948;-66
2022/06/03 09:19:51;;;;;;;;;;;28.80;99.90;;;;;;5089742;28;19919;-66
2022/06/03 09:22:21;;;;;;;;;;;28.80;99.90;;;;;;5087217;28;19923;-67
2022/06/03 09:24:47;;;;;;;;;;;28.90;99.90;;;;;;5080568;28;20342;-67
2022/06/03 09:27:16;;;;;;;;;;;29.00;99.90;;;;;;5083124;28;20002;-65
2022/06/03 09:29:48;;;;;;;;;;;29.10;99.90;;;;;;5064332;28;20080;-66
2022/06/03 09:32:16;;;;;;;;;;;29.20;99.90;;;;;;5077536;28;20370;-67
2022/06/03 09:34:47;;;;;;;;;;;29.30;99.90;;;;;;5084554;28;19916;-65
2022/06/03 09:37:22;;;;;;;;;;;29.50;99.90;;;;;;5089823;28;20463;-66
2022/06/03 09:39:50;;;;;;;;;;;29.70;99.90;;;;;;5080111;28;19932;-66
2022/06/03 09:42:17;;;;;;;;;;;29.90;99.90;;;;;;5082829;28;20390;-65
2022/06/03 09:44:44;;;;;;;;;;;30.00;99.90;;;;;;5088366;28;20002;-66
2022/06/03 09:47:10;;;;;;;;;;;30.00;99.90;;;;;;5077997;28;19924;-65
2022/06/03 09:49:36;;;;;;;;;;;30.20;99.90;;;;;;5071370;28;19908;-66
2022/06/03 09:52:03;;;;;;;;;;;30.30;99.90;;;;;;5086142;28;19916;-68
2022/06/03 09:54:31;;;;;;;;;;;30.40;99.90;;;;;;5082812;28;20011;-68
2022/06/03 09:57:00;;;;;;;;;;;30.20;99.90;;;;;;5062101;28;20326;-69
2022/06/03 09:59:26;;;;;;;;;;;30.10;99.90;;;;;;5077585;28;19944;-68
2022/06/03 10:01:52;;;;;;;;;;;29.90;99.90;;;;;;5080977;28;19916;-67
2022/06/03 10:04:19;;;;;;;;;;;30.00;99.90;;;;;;5058589;28;20439;-67
2022/06/03 10:06:48;;;;;;;;;;;29.90;99.90;;;;;;5083016;28;19988;-66
2022/06/03 10:17:59;;;;;;;;;;;29.80;99.90;;;;;;5019202;28;20003;-67
2022/06/03 10:20:25;;;;;;;;;;;29.80;99.90;;;;;;5065080;28;20274;-67
2022/06/03 10:22:51;;;;;;;;;;;29.80;99.90;;;;;;5082743;28;19912;-67
2022/06/03 10:25:17;;;;;;;;;;;29.90;99.90;;;;;;5086487;28;19994;-66
2022/06/03 10:27:44;;;;;;;;;;;30.20;99.90;;;;;;5057408;28;19920;-67
2022/06/03 10:30:10;;;;;;;;;;;30.20;99.90;;;;;;5083254;28;19935;-66
2022/06/03 10:32:36;;;;;;;;;;;30.10;99.90;;;;;;5076202;28;19923;-68
2022/06/03 10:35:11;;;;;;;;;;;30.20;99.90;;;;;;5068428;28;19951;-68
2022/06/03 10:37:37;;;;;;;;;;;30.10;99.90;;;;;;5067814;28;19991;-65
2022/06/03 10:40:08;;;;;;;;;;;29.90;99.90;;;;;;5065219;28;20342;-68
2022/06/03 10:42:36;;;;;;;;;;;30.00;99.90;;;;;;5080188;28;19936;-66
2022/06/03 10:45:01;;;;;;;;;;;30.10;99.90;;;;;;5062284;28;20002;-66
2022/06/03 10:47:35;;;;;;;;;;;30.40;99.90;;;;;;5082153;28;20023;-66
2022/06/03 10:50:10;;;;;;;;;;;30.70;99.90;;;;;;5070822;28;19915;-65
2022/06/03 11:01:07;;;;;;;;;;;30.10;99.90;;;;;;5083961;28;20383;-64
2022/06/03 11:03:33;;;;;;;;;;;29.90;99.90;;;;;;5074076;28;20007;-67
2022/06/03 11:06:07;;;;;;;;;;;29.80;99.90;;;;;;5082817;28;20370;-66
2022/06/03 11:08:46;;;;;;;;;;;29.70;99.90;;;;;;5082730;28;20008;-67
2022/06/03 11:11:12;;;;;;;;;;;29.50;99.90;;;;;;5060671;28;19916;-66
2022/06/03 11:13:41;;;;;;;;;;;29.20;99.90;;;;;;5088066;28;19920;-66
2022/06/03 11:16:20;;;;;;;;;;;29.00;99.90;;;;;;5086854;28;20386;-65
2022/06/03 11:18:46;;;;;;;;;;;29.00;99.90;;;;;;5076159;28;19912;-66
2022/06/03 11:21:20;;;;;;;;;;;28.70;99.90;;;;;;5063589;28;19912;-65
2022/06/03 11:23:46;;;;;;;;;;;28.50;99.90;;;;;;5067854;28;19923;-64
2022/06/03 11:26:12;;;;;;;;;;;28.50;99.90;;;;;;5065915;28;19916;-66
2022/06/03 11:28:39;;;;;;;;;;;28.50;99.90;;;;;;5074863;28;19909;-68
2022/06/03 11:31:18;;;;;;;;;;;28.50;99.90;;;;;;5078065;28;19947;-66
2022/06/03 11:33:52;;;;;;;;;;;28.60;99.90;;;;;;5066386;28;20587;-66
2022/06/03 11:36:27;;;;;;;;;;;28.70;99.90;;;;;;5089352;28;19916;-65
2022/06/03 11:39:10;;;;;;;;;;;28.90;99.90;;;;;;5066153;28;20011;-65
2022/06/03 11:41:39;;;;;;;;;;;28.80;99.90;;;;;;5081433;28;19912;-66
2022/06/03 11:44:12;;;;;;;;;;;28.70;99.90;;;;;;5081886;28;20018;-65
2022/06/03 11:46:41;;;;;;;;;;;28.80;99.90;;;;;;5081647;28;19916;-65
2022/06/03 11:49:08;;;;;;;;;;;28.80;99.90;;;;;;5076793;28;19912;-66
2022/06/03 11:51:34;;;;;;;;;;;28.70;99.90;;;;;;5092610;28;19924;-66
2022/06/03 11:54:00;;;;;;;;;;;28.40;99.90;;;;;;5071047;28;19920;-67
2022/06/03 11:56:27;;;;;;;;;;;28.40;99.90;;;;;;5084157;28;19916;-67
2022/06/03 11:58:53;;;;;;;;;;;28.70;99.90;;;;;;5083861;28;20415;-65
2022/06/03 12:01:31;;;;;;;;;;;28.60;99.90;;;;;;5083069;28;19920;-65
2022/06/03 12:04:17;;;;;;;;;;;28.70;99.90;;;;;;5083175;28;19958;-64
2022/06/03 12:06:54;;;;;;;;;;;28.50;99.90;;;;;;5074003;28;19920;-66
2022/06/03 12:09:24;;;;;;;;;;;28.50;99.90;;;;;;5091585;28;20411;-67
2022/06/03 12:14:47;;;;;;;;;;;28.70;99.90;;;;;;5085113;28;20396;-68
2022/06/03 12:17:23;;;;;;;;;;;28.90;99.90;;;;;;5087536;28;19958;-68
2022/06/03 12:19:59;;;;;;;;;;;28.90;99.90;;;;;;5086939;28;19973;-67
2022/06/03 12:22:29;;;;;;;;;;;28.90;99.90;;;;;;5086183;28;19973;-66
2022/06/03 12:25:01;;;;;;;;;;;29.00;99.90;;;;;;5084312;28;19913;-67
2022/06/03 12:27:47;;;;;;;;;;;28.80;99.90;;;;;;5075217;28;19916;-67
2022/06/03 12:30:38;;;;;;;;;;;28.60;99.90;;;;;;5065156;28;19924;-66
2022/06/03 12:33:33;;;;;;;;;;;28.50;99.90;;;;;;5087288;28;19916;-70
2022/06/03 12:36:16;;;;;;;;;;;28.60;99.90;;;;;;5067127;28;19923;-67
2022/06/03 12:39:01;;;;;;;;;;;28.40;99.90;;;;;;5055249;28;19935;-67
2022/06/03 12:41:56;;;;;;;;;;;28.40;99.90;;;;;;5093401;28;19916;-67
2022/06/03 12:44:44;;;;;;;;;;;28.50;99.90;;;;;;5081966;28;19912;-66
2022/06/03 12:47:34;;;;;;;;;;;28.60;99.90;;;;;;5066008;28;19919;-66
2022/06/03 12:50:11;;;;;;;;;;;28.60;99.90;;;;;;5084263;28;19926;-66
2022/06/03 12:52:54;;;;;;;;;;;28.80;99.90;;;;;;5065141;28;19948;-66
2022/06/03 12:55:43;;;;;;;;;;;28.70;99.90;;;;;;5084844;28;19912;-67
2022/06/03 12:58:16;;;;;;;;;;;28.70;99.90;;;;;;5082221;28;20297;-67
2022/06/03 13:01:05;;;;;;;;;;;28.70;99.90;;;;;;5067403;28;19913;-66
2022/06/03 13:03:59;;;;;;;;;;;28.80;99.90;;;;;;5083276;28;20447;-67
2022/06/03 13:07:02;;;;;;;;;;;28.90;99.90;;;;;;5066770;28;19927;-66
2022/06/03 13:09:54;;;;;;;;;;;28.70;99.90;;;;;;5083752;28;19912;-66
2022/06/03 13:12:44;;;;;;;;;;;28.80;99.90;;;;;;5064498;28;20342;-71
2022/06/03 13:15:28;;;;;;;;;;;28.90;99.90;;;;;;5081810;28;19923;-69
2022/06/03 13:18:18;;;;;;;;;;;29.10;99.90;;;;;;5070372;28;19942;-72
2022/06/03 13:21:11;;;;;;;;;;;29.10;99.90;;;;;;5082931;28;19912;-69
2022/06/03 13:24:09;;;;;;;;;;;29.20;99.90;;;;;;5085292;28;20014;-72
2022/06/03 13:26:51;;;;;;;;;;;29.30;99.90;;;;;;5063498;28;19919;-71
2022/06/03 13:29:38;;;;;;;;;;;29.20;99.90;;;;;;5076268;28;19921;-70
2022/06/03 13:32:13;;;;;;;;;;;29.20;99.90;;;;;;5072416;28;19923;-70
2022/06/03 13:34:40;;;;;;;;;;;29.20;99.90;;;;;;5082360;28;19943;-69
2022/06/03 13:37:15;;;;;;;;;;;29.40;99.90;;;;;;5061828;28;19968;-70
2022/06/03 13:39:40;;;;;;;;;;;29.50;99.90;;;;;;5067637;28;20327;-71
2022/06/03 13:44:53;;;;;;;;;;;29.40;99.90;;;;;;5082285;28;19938;-71
2022/06/03 13:47:19;;;;;;;;;;;29.30;99.90;;;;;;5073778;28;19912;-70
2022/06/03 13:49:47;;;;;;;;;;;29.20;99.90;;;;;;5069540;28;19919;-70
2022/06/03 13:52:19;;;;;;;;;;;29.20;99.90;;;;;;5069631;28;19912;-68
2022/06/03 13:54:49;;;;;;;;;;;29.10;99.90;;;;;;5070579;28;20259;-70
2022/06/03 13:57:15;;;;;;;;;;;29.20;99.90;;;;;;5072467;28;20308;-69
2022/06/03 13:59:41;;;;;;;;;;;29.10;99.90;;;;;;5064379;28;19999;-70
2022/06/03 14:02:14;;;;;;;;;;;28.90;99.90;;;;;;5065619;28;20011;-71
2022/06/03 14:04:55;;;;;;;;;;;28.80;99.90;;;;;;5070091;28;19999;-69
2022/06/03 14:07:27;;;;;;;;;;;28.60;99.90;;;;;;5066767;28;19930;-70
2022/06/03 14:09:53;;;;;;;;;;;28.30;99.90;;;;;;5066517;28;19942;-70
2022/06/03 14:12:39;;;;;;;;;;;28.10;99.90;;;;;;5061183;28;19912;-71
2022/06/03 14:15:16;;;;;;;;;;;28.00;99.90;;;;;;5055649;28;20003;-71
2022/06/03 14:17:45;;;;;;;;;;;27.80;99.90;;;;;;5060740;28;19966;-70
2022/06/03 14:20:21;;;;;;;;;;;27.60;99.90;;;;;;5069920;28;19913;-70
2022/06/03 14:23:05;;;;;;;;;;;27.40;99.90;;;;;;5065399;28;19913;-72
2022/06/03 14:25:42;;;;;;;;;;;27.10;99.90;;;;;;5053597;28;20324;-72
2022/06/03 14:28:43;;;;;;;;;;;26.70;99.90;;;;;;5093894;28;19985;-70
2022/06/03 14:31:29;;;;;;;;;;;26.60;99.90;;;;;;5036101;28;19917;-70
2022/06/03 14:33:56;;;;;;;;;;;26.40;99.90;;;;;;5054886;28;20430;-69
2022/06/03 14:36:24;;;;;;;;;;;26.20;99.90;;;;;;5070313;28;19917;-71
2022/06/03 14:38:55;;;;;;;;;;;26.00;99.90;;;;;;5059297;28;19919;-69
2022/06/03 14:41:26;;;;;;;;;;;25.90;99.90;;;;;;5062768;28;19931;-68
2022/06/03 14:43:53;;;;;;;;;;;25.90;99.90;;;;;;5080008;28;20655;-71
2022/06/03 14:46:21;;;;;;;;;;;25.70;99.90;;;;;;5061534;28;19999;-70
2022/06/03 14:48:49;;;;;;;;;;;25.40;99.90;;;;;;5073708;28;19916;-69
2022/06/03 14:51:31;;;;;;;;;;;25.30;99.90;;;;;;5068327;28;19948;-70
2022/06/03 14:54:00;;;;;;;;;;;25.10;99.90;;;;;;5059628;28;19992;-69
2022/06/03 14:56:31;;;;;;;;;;;25.00;99.90;;;;;;5078036;28;20324;-70
2022/06/03 14:58:59;;;;;;;;;;;24.80;99.90;;;;;;5087404;28;19912;-70
2022/06/03 15:01:43;;;;;;;;;;;24.70;99.90;;;;;;5085710;28;19908;-71
2022/06/03 15:04:24;;;;;;;;;;;24.70;99.90;;;;;;5069863;28;19936;-71
2022/06/03 15:07:13;;;;;;;;;;;24.60;99.90;;;;;;5080838;28;20466;-69
2022/06/03 15:09:43;;;;;;;;;;;24.60;99.90;;;;;;5060587;28;20397;-71
2022/06/03 15:12:20;;;;;;;;;;;24.60;99.90;;;;;;5060693;28;19931;-70
2022/06/03 15:14:46;;;;;;;;;;;24.50;99.90;;;;;;5071457;28;19916;-70
2022/06/03 15:17:14;;;;;;;;;;;24.40;99.90;;;;;;5072771;28;19972;-70
2022/06/03 15:19:40;;;;;;;;;;;24.30;99.90;;;;;;5073397;28;19912;-69
2022/06/03 15:22:29;;;;;;;;;;;24.10;99.90;;;;;;5062569;28;19919;-71
2022/06/03 15:25:09;;;;;;;;;;;24.10;99.90;;;;;;5065890;28;19915;-72
2022/06/03 15:27:41;;;;;;;;;;;24.00;99.90;;;;;;5069234;28;19961;-70
2022/06/03 15:30:18;;;;;;;;;;;24.00;99.90;;;;;;5066216;28;19956;-68
2022/06/03 15:32:44;;;;;;;;;;;24.10;99.90;;;;;;5062469;28;19917;-71
2022/06/03 15:35:12;;;;;;;;;;;24.10;99.90;;;;;;5065891;28;20538;-69
2022/06/03 15:37:37;;;;;;;;;;;24.00;99.90;;;;;;5059887;28;21960;-69
2022/06/03 15:40:03;;;;;;;;;;;23.90;99.90;;;;;;5070055;28;19916;-70
2022/06/03 15:42:29;;;;;;;;;;;23.90;99.90;;;;;;5064022;28;20362;-69
2022/06/03 15:44:55;;;;;;;;;;;23.90;99.90;;;;;;5065276;28;19919;-69